createdAt,value
2023-05-13T00:03:02.582Z,100.00
2023-05-13T00:06:06.429Z,100.00
2023-05-13T00:09:09.986Z,100.00
2023-05-13T00:12:12.663Z,100.00
2023-05-13T00:15:15.385Z,100.00
2023-05-13T00:18:20.833Z,100.00
2023-05-13T00:21:23.943Z,100.00
2023-05-13T00:24:29.791Z,100.00
2023-05-13T00:27:33.052Z,100.00
2023-05-13T00:30:43.861Z,100.00
2023-05-13T00:33:47.425Z,100.00
2023-05-13T00:36:50.177Z,100.00
2023-05-13T00:39:52.767Z,100.00
2023-05-13T00:42:55.701Z,100.00
2023-05-13T00:45:58.862Z,100.00
2023-05-13T00:49:02.363Z,100.00
2023-05-13T00:52:05.956Z,100.00
2023-05-13T00:55:12.959Z,100.00
2023-05-13T00:58:17.446Z,100.00
2023-05-13T01:01:34.397Z,100.00
2023-05-13T01:04:57.240Z,100.00
2023-05-13T01:08:35.653Z,100.00
2023-05-13T01:11:41.672Z,100.00
2023-05-13T01:15:01.188Z,100.00
2023-05-13T01:18:10.505Z,100.00
2023-05-13T01:21:16.406Z,100.00
2023-05-13T01:24:19.479Z,100.00
2023-05-13T01:27:22.179Z,100.00
2023-05-13T01:30:25.811Z,100.00
2023-05-13T01:33:29.882Z,100.00
2023-05-13T01:36:34.875Z,100.00
2023-05-13T01:39:38.438Z,100.00
2023-05-13T01:42:45.000Z,100.00
2023-05-13T01:45:47.624Z,100.00
2023-05-13T01:48:50.903Z,100.00
2023-05-13T01:51:53.612Z,100.00
2023-05-13T01:54:56.207Z,100.00
2023-05-13T01:57:58.820Z,100.00
2023-05-13T02:01:01.477Z,100.00
2023-05-13T02:04:04.341Z,100.00
2023-05-13T02:07:07.044Z,100.00
2023-05-13T02:10:10.734Z,100.00
2023-05-13T02:13:13.329Z,100.00
2023-05-13T02:16:20.163Z,100.00
2023-05-13T02:19:22.883Z,100.00
2023-05-13T02:22:25.694Z,100.00
2023-05-13T02:25:28.392Z,100.00
2023-05-13T02:28:33.417Z,100.00
2023-05-13T02:31:38.936Z,100.00
2023-05-13T02:34:41.626Z,100.00
2023-05-13T02:37:44.205Z,100.00
2023-05-13T02:40:47.203Z,100.00
2023-05-13T02:43:55.797Z,100.00
2023-05-13T02:46:58.847Z,100.00
2023-05-13T02:50:01.670Z,100.00
2023-05-13T02:53:05.990Z,100.00
2023-05-13T02:56:10.250Z,100.00
2023-05-13T02:59:12.976Z,100.00
2023-05-13T03:02:15.682Z,100.00
2023-05-13T03:05:19.052Z,100.00
2023-05-13T03:08:21.648Z,100.00
2023-05-13T03:11:24.271Z,100.00
2023-05-13T03:14:26.940Z,100.00
2023-05-13T03:17:32.103Z,100.00
2023-05-13T03:20:35.119Z,100.00
2023-05-13T03:23:39.060Z,100.00
2023-05-13T03:26:42.184Z,100.00
2023-05-13T03:29:45.328Z,100.00
2023-05-13T03:32:50.563Z,100.00
2023-05-13T03:35:53.387Z,100.00
2023-05-13T03:39:01.166Z,100.00
2023-05-13T03:42:04.083Z,100.00
2023-05-13T03:45:07.521Z,100.00
2023-05-13T03:48:12.779Z,100.00
2023-05-13T03:51:15.946Z,100.00
2023-05-13T03:54:18.875Z,100.00
2023-05-13T03:57:21.467Z,100.00
2023-05-13T04:00:24.345Z,100.00
2023-05-13T04:03:27.068Z,100.00
2023-05-13T04:06:32.814Z,100.00
2023-05-13T04:09:35.351Z,100.00
2023-05-13T04:12:38.915Z,100.00
2023-05-13T04:15:41.851Z,100.00
2023-05-13T04:18:44.555Z,100.00
2023-05-13T04:21:47.155Z,100.00
2023-05-13T04:24:52.180Z,100.00
2023-05-13T04:27:57.546Z,100.00
2023-05-13T04:31:13.784Z,100.00
2023-05-13T04:34:16.595Z,100.00
2023-05-13T04:37:20.326Z,100.00
2023-05-13T04:40:24.579Z,100.00
2023-05-13T04:43:28.942Z,100.00
2023-05-13T04:46:33.995Z,100.00
2023-05-13T04:49:37.459Z,100.00
2023-05-13T04:52:43.183Z,100.00
2023-05-13T04:55:50.289Z,100.00
2023-05-13T04:58:54.047Z,100.00
2023-05-13T05:01:58.259Z,100.00
2023-05-13T05:05:01.062Z,100.00
2023-05-13T05:08:03.925Z,100.00
2023-05-13T05:11:06.628Z,100.00
2023-05-13T05:14:13.172Z,100.00
2023-05-13T05:17:16.989Z,100.00
2023-05-13T05:20:20.483Z,100.00
2023-05-13T05:23:25.148Z,100.00
2023-05-13T05:26:31.843Z,100.00
2023-05-13T05:29:34.461Z,100.00
2023-05-13T05:32:37.176Z,100.00
2023-05-13T05:35:41.858Z,100.00
2023-05-13T05:38:48.426Z,100.00
2023-05-13T05:41:51.195Z,100.00
2023-05-13T05:44:54.315Z,100.00
2023-05-13T05:47:57.886Z,100.00
2023-05-13T05:51:00.727Z,100.00
2023-05-13T05:54:06.786Z,100.00
2023-05-13T05:57:10.332Z,100.00
2023-05-13T06:00:13.951Z,99.94
2023-05-13T06:03:22.406Z,99.32
2023-05-13T06:06:25.464Z,98.22
2023-05-13T06:09:28.146Z,97.61
2023-05-13T06:12:30.947Z,95.89
2023-05-13T06:15:33.820Z,95.87
2023-05-13T06:18:39.127Z,95.41
2023-05-13T06:21:43.245Z,96.45
2023-05-13T06:24:48.813Z,93.49
2023-05-13T06:27:51.422Z,94.54
2023-05-13T06:30:56.793Z,93.97
2023-05-13T06:34:02.338Z,91.94
2023-05-13T06:37:05.019Z,91.41
2023-05-13T06:40:08.469Z,91.27
2023-05-13T06:43:16.622Z,89.53
2023-05-13T06:46:23.563Z,87.74
2023-05-13T06:49:26.311Z,89.62
2023-05-13T06:52:31.647Z,91.71
2023-05-13T06:55:41.515Z,87.67
2023-05-13T06:58:44.309Z,87.39
2023-05-13T07:01:46.934Z,87.24
2023-05-13T07:04:49.570Z,88.00
2023-05-13T07:07:55.517Z,88.22
2023-05-13T07:11:07.115Z,88.44
2023-05-13T07:14:09.812Z,89.39
2023-05-13T07:17:12.462Z,89.82
2023-05-13T07:20:15.130Z,89.37
2023-05-13T07:23:17.722Z,89.90
2023-05-13T07:26:21.749Z,88.89
2023-05-13T07:29:25.898Z,88.54
2023-05-13T07:32:30.371Z,88.17
2023-05-13T07:35:33.628Z,89.19
2023-05-13T07:38:36.335Z,87.83
2023-05-13T07:41:38.987Z,89.25
2023-05-13T07:44:41.668Z,90.10
2023-05-13T07:47:44.774Z,89.31
2023-05-13T07:50:47.728Z,89.70
2023-05-13T07:53:52.646Z,88.46
2023-05-13T07:56:58.289Z,89.21
2023-05-13T08:00:00.889Z,89.56
2023-05-13T08:03:04.452Z,89.87
2023-05-13T08:06:07.544Z,89.50
2023-05-13T08:09:12.340Z,87.89
2023-05-13T08:12:17.332Z,87.87
2023-05-13T08:15:19.996Z,87.40
2023-05-13T08:18:22.806Z,88.24
2023-05-13T08:21:25.717Z,87.75
2023-05-13T08:24:28.343Z,87.81
2023-05-13T08:27:30.961Z,86.07
2023-05-13T08:30:33.576Z,86.36
2023-05-13T08:33:39.938Z,86.07
2023-05-13T08:36:42.708Z,83.82
2023-05-13T08:39:45.901Z,85.42
2023-05-13T08:42:51.144Z,84.85
2023-05-13T08:45:54.987Z,85.10
2023-05-13T08:48:58.277Z,84.05
2023-05-13T08:52:01.010Z,84.88
2023-05-13T08:55:04.079Z,86.18
2023-05-13T08:58:07.146Z,88.69
2023-05-13T09:01:13.232Z,87.51
2023-05-13T09:04:16.298Z,88.96
2023-05-13T09:07:18.904Z,89.18
2023-05-13T09:10:24.585Z,85.98
2023-05-13T09:13:27.177Z,85.62
2023-05-13T09:16:33.129Z,86.71
2023-05-13T09:19:36.427Z,86.44
2023-05-13T09:22:45.964Z,85.87
2023-05-13T09:25:48.517Z,85.92
2023-05-13T09:29:11.102Z,86.95
2023-05-13T09:32:14.925Z,87.50
2023-05-13T09:35:17.867Z,87.68
2023-05-13T09:38:28.993Z,87.76
2023-05-13T09:41:32.069Z,87.78
2023-05-13T09:44:38.436Z,86.78
2023-05-13T09:47:41.495Z,87.71
2023-05-13T09:50:53.177Z,87.37
2023-05-13T09:54:07.490Z,85.21
2023-05-13T09:57:13.622Z,86.57
2023-05-13T10:00:28.924Z,85.74
2023-05-13T10:03:35.039Z,84.16
2023-05-13T10:06:39.003Z,84.58
2023-05-13T10:09:43.822Z,84.19
2023-05-13T10:12:47.057Z,88.49
2023-05-13T10:15:51.264Z,85.51
2023-05-13T10:18:54.182Z,84.45
2023-05-13T10:21:57.762Z,84.94
2023-05-13T10:25:01.744Z,85.47
2023-05-13T10:28:05.451Z,85.85
2023-05-13T10:31:08.120Z,85.02
2023-05-13T10:34:11.273Z,84.37
2023-05-13T10:37:48.897Z,81.51
2023-05-13T10:41:12.221Z,81.40
2023-05-13T10:44:14.849Z,80.39
2023-05-13T10:47:17.518Z,81.42
2023-05-13T10:50:26.651Z,82.15
2023-05-13T10:53:33.426Z,83.83
2023-05-13T10:56:37.067Z,84.53
2023-05-13T11:00:03.786Z,84.26
2023-05-13T11:03:18.680Z,84.64
2023-05-13T11:06:34.920Z,84.33
2023-05-13T11:09:39.590Z,86.32
2023-05-13T11:12:42.194Z,86.28
2023-05-13T11:15:46.342Z,86.26
2023-05-13T11:18:51.321Z,85.92
2023-05-13T11:21:57.490Z,85.33
2023-05-13T11:25:04.883Z,85.19
2023-05-13T11:28:11.156Z,84.10
2023-05-13T11:31:21.580Z,82.04
2023-05-13T11:34:25.144Z,80.70
2023-05-13T11:37:27.800Z,79.50
2023-05-13T11:40:34.462Z,81.08
2023-05-13T11:43:39.508Z,80.49
2023-05-13T11:46:55.126Z,79.27
2023-05-13T11:49:58.665Z,80.80
2023-05-13T11:53:01.943Z,80.62
2023-05-13T11:56:11.289Z,81.36
2023-05-13T11:59:14.926Z,79.31
2023-05-13T12:02:21.568Z,78.77
2023-05-13T12:05:25.063Z,79.77
2023-05-13T12:08:28.016Z,79.20
2023-05-13T12:11:33.851Z,79.36
2023-05-13T12:14:36.954Z,76.14
2023-05-13T12:17:39.837Z,74.91
2023-05-13T12:20:42.476Z,74.43
2023-05-13T12:23:45.141Z,75.41
2023-05-13T12:26:48.648Z,76.07
2023-05-13T12:29:54.670Z,77.28
2023-05-13T12:32:59.192Z,76.66
2023-05-13T12:36:25.793Z,74.67
2023-05-13T12:39:28.642Z,76.49
2023-05-13T12:42:34.248Z,77.52
2023-05-13T12:45:40.260Z,78.46
2023-05-13T12:48:44.299Z,79.51
2023-05-13T12:51:46.944Z,78.96
2023-05-13T12:54:49.635Z,79.44
2023-05-13T12:58:11.408Z,78.20
2023-05-13T13:01:14.011Z,77.71
2023-05-13T13:04:17.118Z,78.00
2023-05-13T13:07:19.983Z,78.60
2023-05-13T13:10:22.755Z,78.31
2023-05-13T13:13:25.274Z,75.88
2023-05-13T13:16:27.973Z,75.54
2023-05-13T13:19:36.546Z,72.11
2023-05-13T13:22:39.246Z,69.79
2023-05-13T13:25:41.833Z,70.19
2023-05-13T13:28:44.694Z,72.73
2023-05-13T13:31:47.372Z,73.28
2023-05-13T13:34:50.036Z,74.17
2023-05-13T13:37:56.063Z,75.54
2023-05-13T13:40:58.591Z,75.10
2023-05-13T13:44:01.154Z,73.87
2023-05-13T13:47:03.922Z,73.25
2023-05-13T13:50:06.956Z,72.12
2023-05-13T13:53:09.674Z,73.03
2023-05-13T13:56:12.306Z,71.75
2023-05-13T13:59:14.843Z,73.33
2023-05-13T14:02:18.047Z,75.19
2023-05-13T14:05:20.726Z,72.72
2023-05-13T14:08:23.534Z,74.25
2023-05-13T14:11:26.477Z,73.72
2023-05-13T14:14:29.184Z,74.03
2023-05-13T14:17:34.397Z,74.48
2023-05-13T14:20:38.223Z,72.82
2023-05-13T14:23:42.081Z,73.33
2023-05-13T14:26:47.343Z,74.53
2023-05-13T14:29:52.448Z,74.16
2023-05-13T14:32:55.111Z,75.05
2023-05-13T14:35:57.993Z,76.34
2023-05-13T14:39:09.195Z,78.15
2023-05-13T14:42:14.431Z,76.90
2023-05-13T14:45:18.526Z,77.26
2023-05-13T14:48:21.641Z,75.39
2023-05-13T14:51:26.978Z,69.02
2023-05-13T14:54:35.527Z,60.20
2023-05-13T14:57:38.972Z,53.84
2023-05-13T15:00:41.772Z,59.38
2023-05-13T15:03:46.823Z,63.74
2023-05-13T15:06:49.624Z,64.22
2023-05-13T15:09:52.232Z,66.11
2023-05-13T15:12:56.189Z,66.38
2023-05-13T15:15:58.841Z,66.70
2023-05-13T15:19:01.545Z,65.49
2023-05-13T15:22:07.079Z,56.60
2023-05-13T15:25:09.944Z,61.32
2023-05-13T15:28:12.545Z,64.14
2023-05-13T15:31:15.210Z,66.64
2023-05-13T15:34:18.085Z,68.48
2023-05-13T15:37:23.120Z,70.29
2023-05-13T15:40:25.970Z,68.90
2023-05-13T15:43:28.474Z,70.96
2023-05-13T15:46:33.666Z,71.38
2023-05-13T15:49:36.554Z,67.13
2023-05-13T15:52:39.559Z,68.14
2023-05-13T15:55:42.199Z,70.28
2023-05-13T15:58:45.464Z,73.85
2023-05-13T16:01:48.191Z,75.99
2023-05-13T16:04:50.771Z,76.21
2023-05-13T16:07:53.368Z,78.78
2023-05-13T16:10:56.044Z,79.25
2023-05-13T16:13:58.795Z,79.39
2023-05-13T16:17:01.814Z,80.08
2023-05-13T16:20:04.775Z,81.52
2023-05-13T16:23:07.405Z,81.32
2023-05-13T16:26:09.963Z,82.16
2023-05-13T16:29:12.674Z,81.22
2023-05-13T16:32:15.306Z,81.86
2023-05-13T16:35:22.101Z,82.05
2023-05-13T16:38:26.124Z,83.08
2023-05-13T16:41:28.743Z,82.42
2023-05-13T16:44:31.681Z,83.80
2023-05-13T16:47:34.562Z,84.97
2023-05-13T16:50:40.357Z,84.31
2023-05-13T16:53:43.045Z,84.91
2023-05-13T16:56:46.931Z,85.05
2023-05-13T16:59:49.521Z,86.08
2023-05-13T17:02:54.971Z,86.81
2023-05-13T17:05:57.671Z,86.48
2023-05-13T17:09:00.392Z,88.00
2023-05-13T17:12:03.022Z,89.43
2023-05-13T17:15:06.147Z,90.07
2023-05-13T17:18:08.884Z,90.70
2023-05-13T17:21:13.883Z,91.48
2023-05-13T17:24:16.468Z,91.41
2023-05-13T17:27:19.033Z,92.27
2023-05-13T17:30:23.059Z,94.41
2023-05-13T17:33:25.861Z,94.27
2023-05-13T17:36:34.529Z,94.91
2023-05-13T17:39:40.361Z,95.74
2023-05-13T17:42:42.947Z,96.03
2023-05-13T17:45:45.713Z,96.25
2023-05-13T17:48:48.345Z,96.28
2023-05-13T17:51:51.350Z,97.03
2023-05-13T17:54:53.942Z,98.14
2023-05-13T17:57:56.697Z,98.78
2023-05-13T18:01:02.798Z,99.39
2023-05-13T18:04:06.419Z,100.00
2023-05-13T18:07:09.377Z,100.00
2023-05-13T18:10:12.041Z,100.00
2023-05-13T18:13:20.415Z,100.00
2023-05-13T18:16:23.125Z,100.00
2023-05-13T18:19:25.862Z,100.00
2023-05-13T18:22:31.460Z,100.00
2023-05-13T18:25:42.629Z,100.00
2023-05-13T18:28:54.949Z,100.00
2023-05-13T18:31:57.789Z,100.00
2023-05-13T18:35:08.187Z,100.00
2023-05-13T18:38:10.825Z,100.00
2023-05-13T18:41:13.597Z,100.00
2023-05-13T18:44:16.343Z,100.00
2023-05-13T18:47:18.996Z,100.00
2023-05-13T18:50:22.498Z,100.00
2023-05-13T18:53:28.458Z,100.00
2023-05-13T18:56:32.120Z,100.00
2023-05-13T18:59:34.715Z,100.00
2023-05-13T19:02:37.552Z,100.00
2023-05-13T19:05:43.536Z,100.00
2023-05-13T19:08:46.304Z,100.00
2023-05-13T19:11:48.930Z,100.00
2023-05-13T19:14:51.467Z,100.00
2023-05-13T19:17:54.225Z,100.00
2023-05-13T19:20:56.815Z,100.00
2023-05-13T19:23:59.401Z,100.00
2023-05-13T19:27:02.294Z,100.00
2023-05-13T19:30:05.970Z,100.00
2023-05-13T19:33:09.317Z,100.00
2023-05-13T19:36:12.045Z,100.00
2023-05-13T19:39:14.710Z,100.00
2023-05-13T19:42:17.292Z,100.00
2023-05-13T19:45:20.954Z,100.00
2023-05-13T19:48:27.770Z,100.00
2023-05-13T19:51:32.659Z,100.00
2023-05-13T19:54:35.488Z,100.00
2023-05-13T19:57:41.264Z,100.00
2023-05-13T20:00:44.246Z,100.00
2023-05-13T20:03:46.976Z,100.00
2023-05-13T20:06:49.667Z,100.00
2023-05-13T20:09:52.510Z,100.00
2023-05-13T20:12:55.056Z,100.00
2023-05-13T20:15:57.645Z,100.00
2023-05-13T20:19:00.284Z,100.00
2023-05-13T20:22:03.479Z,100.00
2023-05-13T20:25:06.954Z,100.00
2023-05-13T20:28:10.236Z,100.00
2023-05-13T20:31:13.010Z,100.00
2023-05-13T20:34:15.921Z,100.00
2023-05-13T20:37:19.735Z,100.00
2023-05-13T20:40:24.023Z,100.00
2023-05-13T20:43:26.758Z,100.00
2023-05-13T20:46:29.520Z,100.00
2023-05-13T20:49:32.760Z,100.00
2023-05-13T20:52:35.456Z,100.00
2023-05-13T20:55:38.070Z,100.00
2023-05-13T20:58:40.626Z,100.00
2023-05-13T21:01:47.658Z,100.00
2023-05-13T21:04:53.063Z,100.00
2023-05-13T21:07:58.106Z,100.00
2023-05-13T21:11:00.866Z,100.00
2023-05-13T21:14:03.722Z,100.00
2023-05-13T21:17:06.439Z,100.00
2023-05-13T21:20:11.018Z,100.00
2023-05-13T21:23:13.713Z,100.00
2023-05-13T21:26:16.369Z,100.00
2023-05-13T21:29:21.599Z,100.00
2023-05-13T21:32:27.547Z,100.00
2023-05-13T21:35:30.225Z,100.00
2023-05-13T21:38:32.849Z,100.00
2023-05-13T21:41:35.976Z,100.00
2023-05-13T21:44:38.590Z,100.00
2023-05-13T21:47:41.335Z,100.00
2023-05-13T21:50:43.855Z,100.00
2023-05-13T21:53:46.394Z,100.00
2023-05-13T21:56:56.536Z,100.00
2023-05-13T21:59:59.110Z,100.00
2023-05-13T22:03:06.167Z,100.00
2023-05-13T22:06:08.861Z,100.00
2023-05-13T22:09:14.637Z,100.00
2023-05-13T22:12:17.265Z,100.00
2023-05-13T22:15:19.911Z,100.00
2023-05-13T22:18:25.554Z,100.00
2023-05-13T22:21:28.374Z,100.00
2023-05-13T22:24:31.146Z,100.00
2023-05-13T22:27:33.985Z,100.00
2023-05-13T22:30:42.558Z,100.00
2023-05-13T22:33:47.012Z,100.00
2023-05-13T22:36:50.340Z,100.00
2023-05-13T22:39:52.830Z,100.00
2023-05-13T22:42:55.609Z,100.00
2023-05-13T22:45:58.283Z,100.00
2023-05-13T22:49:03.205Z,100.00
2023-05-13T22:52:06.324Z,100.00
2023-05-13T22:55:09.385Z,100.00
2023-05-13T22:58:13.576Z,100.00
2023-05-13T23:01:16.158Z,100.00
2023-05-13T23:04:18.785Z,100.00
2023-05-13T23:07:21.489Z,100.00
2023-05-13T23:10:24.291Z,100.00
2023-05-13T23:13:27.036Z,100.00
2023-05-13T23:16:32.353Z,100.00
2023-05-13T23:19:35.318Z,100.00
2023-05-13T23:22:38.693Z,100.00
2023-05-13T23:25:45.289Z,100.00
2023-05-13T23:28:47.923Z,100.00
2023-05-13T23:31:50.895Z,100.00
2023-05-13T23:34:53.536Z,100.00
2023-05-13T23:37:56.114Z,100.00
2023-05-13T23:40:58.684Z,100.00
2023-05-13T23:44:03.752Z,100.00
2023-05-13T23:47:06.347Z,100.00
2023-05-13T23:50:09.289Z,100.00
2023-05-13T23:53:11.825Z,100.00
2023-05-13T23:56:14.494Z,100.00
2023-05-13T23:59:17.073Z,100.00
